Terminal Aerodrome Forecast
Issued by NWS Mt. Holly, NJ

Home | Current Version | Previous Version | Text Only | Print | Product List | Glossary On
Versions: 1 2 3 4 5 6 7 8 9 10 11 12 13 14 15 16 17 18 19 20 21
000
FTUS41 KPHI 210300 AAB
TAFABE
TAF AMD
KABE 210359Z 2104/2124 00000KT P6SM OVC030
     FM211300 30004KT P6SM BKN035 BKN120
     FM211800 31005KT P6SM SCT040=

USA.gov is the U.S. government's official web portal to all federal, state and local government web resources and services.